Terminal Aerodrome Forecast
Issued by NWS

Home | Current Version | Previous Version | Text Only | Print | Product List | Glossary On
Versions: 1 2 3 4 5 6 7 8 9 10 11 12 13
726
FTUS43 KJKL 262338
TAFSJS
TAF
KSJS 262338Z 2700/2724 22004KT P6SM VCSH SCT070
     FM270300 17004KT P6SM BKN070
     FM270700 00000KT 4SM BR FEW040
     FM271300 VRB03KT P6SM SCT050
     FM271800 VRB03KT P6SM VCTS BKN050CB=

USA.gov is the U.S. government's official web portal to all federal, state and local government web resources and services.